• Join FlightAware (Why Join?)
  • Login
  • US Flag 
04:37AM EDT


 

Airport Tracker/Info


-or-


 

Live Flight TrackerFlight Track Log ✈ SWA1728 ✈ 02-May-2013 ✈ KDEN - KMDW

Flight Track Log - Related Links

Times and Time Zones

All times are in EDT time to prevent confusion due to time zone crossing. See the SWA1728 flight status page for this flight to view local times or setup timezone preferences in your user account.

Time Position Orientation Groundspeed Altitude Reporting Facility
EDT Latitude Longitude Course Direction KTS MPH feet Rate Location/Type
06:50PM 39.8833 -104.5333 90° East 249 287 8,300  Level Denver TRACON
06:51PM 39.8742 -104.4475 98° East 262 302 10,400 2,340 Climbing Denver Center
06:52PM 39.8733 -104.3314 90° East 314 361 12,700 2,340 Climbing Denver Center
06:53PM 39.8736 -104.1947 90° East 350 403 15,300 2,520 Climbing Denver Center
06:54PM 39.8728 -104.0647 90° East 362 417 18,000 2,280 Climbing Denver Center
06:55PM 39.8667 -103.8039 90° East  Level FlightAware Approximate
06:55PM 39.8706 -103.9222 91° East 368 423 20,100  Level Denver Center
06:56PM 39.8786 -103.7908 85° East 366 421 21,800 1,620 Climbing Denver Center
06:57PM 39.8922 -103.6583 82° East 371 427 23,500 1,560 Climbing Denver Center
06:58PM 39.9061 -103.5408 81° East 386 444 25,100 1,560 Climbing Denver Center
06:59PM 39.9250 -103.3725 82° East 399 459 26,700 1,560 Climbing Denver Center
07:00PM 39.9444 -103.1989 82° East 410 472 28,400 1,320 Climbing Denver Center
07:01PM 39.9614 -103.0458 82° East 421 484 29,700 1,200 Climbing Denver Center
07:02PM 39.9806 -102.8692 82° East 420 483 31,200 1,260 Climbing Denver Center
07:03PM 39.9978 -102.7142 82° East 427 491 32,400 1,080 Climbing Denver Center
07:04PM 40.0150 -102.5422 82° East 428 493 33,500 1,080 Climbing Denver Center
07:05PM 40.0306 -102.3942 82° East 433 498 34,700 720 Climbing Denver Center
07:06PM 40.0486 -102.2225 82° East 430 495 35,000 120 Climbing Denver Center
07:07PM 40.0636 -102.0750 82° East 431 496 35,000  Level Denver Center
07:08PM 40.0814 -101.8986 82° East 440 506 35,000  Level Denver Center
07:10PM 40.0958 -101.7475 83° East 439 505 35,000  Level Denver Center
07:11PM 40.1144 -101.5714 82° East 442 509 35,000  Level Denver Center
07:12PM 40.1281 -101.4181 83° East 444 511 35,000  Level Denver Center
07:13PM 40.1422 -101.2672 83° East 441 507 35,000  Level Denver Center
07:14PM 40.1589 -101.0903 83° East 442 509 35,000  Level Denver Center
07:15PM 40.1725 -100.9406 83° East 438 504 35,000  Level Denver Center
07:16PM 40.1886 -100.7639 83° East 439 505 35,000  Level Denver Center
07:17PM 40.2028 -100.6111 83° East 443 510 35,000  Level Denver Center
07:18PM 40.2183 -100.4342 83° East 442 509 35,000  Level Denver Center
07:19PM 40.2317 -100.2803 83° East 447 514 35,000  Level Denver Center
07:20PM 40.2464 -100.1019 84° East 446 513 35,000  Level Denver Center
07:21PM 40.2567 -99.9747 84° East 445 512 35,000  Level Denver Center
07:22PM 40.2736 -99.7711 84° East 451 519 35,000  Level Denver Center
07:23PM 40.2872 -99.6083 84° East 452 520 35,000  Level Denver Center
07:24PM 40.2994 -99.4461 84° East 449 517 35,000  Level Denver Center
07:25PM 40.3144 -99.2508 84° East 450 518 35,000  Level Denver Center
07:26PM 40.3275 -99.0864 84° East 453 521 35,000  Level Denver Center
07:27PM 40.3400 -98.9231 84° East 452 520 35,000  Level Denver Center
07:28PM 40.3497 -98.7936 84° East 453 521 35,000  Level Minneapolis Center
07:29PM 40.3722 -98.5969 81° East 456 525 35,000  Level Minneapolis Center
07:30PM 40.3942 -98.4311 80° East 461 531 35,000  Level Minneapolis Center
07:31PM 40.4150 -98.2631 81° East 467 537 35,000  Level Minneapolis Center
07:32PM 40.4353 -98.0936 81° East 471 542 35,000  Level Minneapolis Center
07:33PM 40.4564 -97.9228 81° East 474 545 35,000  Level Minneapolis Center
07:34PM 40.4764 -97.7519 81° East 475 547 35,000  Level Minneapolis Center
07:35PM 40.5025 -97.5481 80° East 474 545 35,000  Level Minneapolis Center
07:36PM 40.5203 -97.3819 82° East 464 534 35,000  Level Minneapolis Center
07:37PM 40.5389 -97.2214 81° East 456 525 35,000  Level Minneapolis Center
07:38PM 40.5589 -97.0561 81° East 458 527 35,000  Level Minneapolis Center
07:39PM 40.5769 -96.8883 82° East 462 532 35,000  Level Minneapolis Center
07:40PM 40.5961 -96.7203 81° East 465 535 35,000  Level Minneapolis Center
07:41PM 40.6186 -96.5164 82° East 470 541 35,000  Level Minneapolis Center
07:42PM 40.6375 -96.3489 81° East 468 539 35,000  Level Minneapolis Center
07:43PM 40.6542 -96.1814 82° East 466 536 35,000  Level Minneapolis Center
07:44PM 40.6125 -96.0422 111° Southeast 420 483 35,000  Level Minneapolis Center
07:46PM 40.5417 -95.9314 130° Southeast 401 461 35,000  Level Minneapolis Center
07:47PM 40.4722 -95.8211 130° Southeast 396 456 35,000  Level Minneapolis Center
07:48PM 40.4047 -95.7103 129° Southeast 392 451 35,000  Level Minneapolis Center
07:49PM 40.3236 -95.5758 128° Southeast 392 451 35,000  Level Minneapolis Center
07:50PM 40.2564 -95.4628 128° Southeast 395 455 35,000  Level Minneapolis Center
07:51PM 40.1872 -95.3519 129° Southeast 394 453 35,000  Level Minneapolis Center
07:52PM 40.1200 -95.2400 128° Southeast 394 453 35,000  Level Minneapolis Center
07:53PM 40.1181 -95.0878 91° East 438 504 35,000  Level Minneapolis Center
07:54PM 40.1900 -94.9872 47° Northeast 466 536 35,000  Level Minneapolis Center
07:55PM 40.3164 -94.8525 39° Northeast 486 559 35,000  Level Minneapolis Center
07:56PM 40.4422 -94.7200 39° Northeast 487 560 35,000  Level Minneapolis Center
07:57PM 40.5469 -94.6106 38° Northeast 483 556 35,000  Level Minneapolis Center
07:58PM 40.5956 -94.4753 65° Northeast 462 532 35,000  Level Minneapolis Center
07:59PM 40.5722 -94.3689 106° East 406 467 35,000  Level Minneapolis Center
08:00PM 40.5458 -94.1761 100° East 426 490 35,000  Level Minneapolis Center
08:01PM 40.5733 -94.0136 77° East 456 525 35,000  Level Minneapolis Center
08:02PM 40.5964 -93.8522 79° East 456 525 35,000  Level Minneapolis Center
08:03PM 40.6231 -93.6767 79° East 444 511 35,000  Level Minneapolis Center
08:04PM 40.6386 -93.5453 81° East 437 503 35,000  Level Minneapolis Center
08:05PM 40.6661 -93.3831 77° East 447 514 35,000 -360 Level Minneapolis Center
08:06PM 40.6994 -93.1544 79° East 454 522 34,300 -1,020 Descending Minneapolis Center
08:07PM 40.7242 -92.9892 79° East 458 527 33,000 -1,140 Descending Minneapolis Center
08:08PM 40.7411 -92.8625 80° East 446 513 32,100 -540 Descending Chicago Center
08:09PM 40.7678 -92.6758 79° East 435 501 32,000 -60 Descending Chicago Center
08:10PM 40.7906 -92.5128 79° East 447 514 32,000  Level Chicago Center
08:12PM 40.8192 -92.3153 79° East 457 526 32,000  Level Chicago Center
08:13PM 40.8422 -92.1458 80° East 468 539 32,000  Level Chicago Center
08:15PM 40.8861 -91.8094 80° East 467 537 32,000  Level Minneapolis Center
08:16PM 40.9136 -91.6078 80° East 469 540 32,000  Level Chicago Center
08:17PM 40.9353 -91.4394 80° East 467 537 32,000  Level Chicago Center
08:18PM 40.9586 -91.2636 80° East 460 529 32,000 -1,020 Level Chicago Center
08:19PM 40.9792 -91.0964 81° East 461 531 29,900 -2,220 Descending Chicago Center
08:20PM 41.0003 -90.9322 80° East 453 521 27,500 -2,280 Descending Chicago Center
08:21PM 41.0194 -90.7761 81° East 435 501 25,300 -1,920 Descending Chicago Center
08:22PM 41.0389 -90.6244 80° East 419 482 23,600 -1,500 Descending Chicago Center
08:23PM 41.0569 -90.4708 81° East 419 482 22,200 -1,500 Descending Chicago Center
08:24PM 41.0797 -90.2833 81° East 426 490 20,500 -1,440 Descending Chicago Center
08:25PM 41.0950 -90.1458 82° East 374 430 19,300 -1,080 Descending Chicago Center
08:26PM 41.1108 -90.0203 80° East 345 397 18,300 -840 Descending Chicago Center
08:27PM 41.1253 -89.8911 82° East 350 403 17,600 -780 Descending Chicago Center
08:28PM 41.1417 -89.7511 81° East 376 433 16,700 -1,020 Descending Chicago Center
08:29PM 41.1567 -89.6153 82° East 371 427 15,500 -1,080 Descending Chicago Center
08:30PM 41.1667 -89.4908 84° East 341 392 14,500 -960 Descending Chicago Center
08:31PM 41.1750 -89.3697 85° East 331 381 13,600 -1,140 Descending Chicago Center
08:32PM 41.1858 -89.2211 84° East 337 388 12,200 -1,380 Descending Chicago Center
08:33PM 41.1931 -89.0986 85° East 322 371 10,800 -1,080 Descending Chicago Center
08:34PM 41.2011 -88.9811 85° East 321 369 10,000 -840 Descending Chicago Center
08:35PM 41.2206 -88.8769 76° East 306 352 9,100 -900 Descending Chicago Center
08:36PM 41.2642 -88.7878 57° Northeast 292 336 8,200 -840 Descending Chicago Center
08:37PM 41.3053 -88.6944 60° Northeast 294 338 7,400 -840 Descending Chicago Center
08:38PM 41.3472 -88.6017 59° Northeast 295 339 6,500 -720 Descending Chicago Center
08:40PM 41.3964 -88.4928 59° Northeast 289 333 6,000 -300 Descending Chicago Center
08:41PM 41.4356 -88.4042 59° Northeast 282 325 6,000  Level Chicago Center
08:42PM 41.4744 -88.3167 59° Northeast 277 319 6,000 -120 Level Chicago Center
08:43PM 41.4919 -88.2206 76° East 281 323 5,800 -660 Descending Chicago Center
08:44PM 41.5003 -88.1225 83° East 268 308 4,700 -900 Descending Chicago Center
08:45PM 41.5217 -88.0394 71° East 254 292 4,000 -360 Descending Chicago Center
08:46PM 41.5822 -88.0050 23° Northeast 246 283 4,000  Level Chicago Center
08:47PM 41.6453 -87.9314 41° Northeast 250 288 4,000 -480 Level Chicago Center
08:48PM 41.6903 -87.8711 45° Northeast 241 277 3,100 -1,080 Descending Chicago Center
08:48PM 41.7167 -87.8333 47° Northeast 222 255 2,400 -900 Descending Chicago TRACON
08:49PM 41.7500 -87.8000 37° Northeast 162 186 1,900 -840 Descending Chicago TRACON
08:50PM 41.7667 -87.7667 56° Northeast 117 135 900 -1,020 Descending Chicago TRACON